Time;durP1;ratioP1;P1;durP2;ratioP2;P2;SDS_P1;SDS_P2;PMS_P1;PMS_P2;Temp;Humidity;BMP_temperature;BMP_pressure;BME280_temperature;BME280_humidity;BME280_pressure;Samples;Min_cycle;Max_cycle;Signal;HPM_P1;HPM_P2
2022/06/13 00:00:31;;;;;;;3.63;3.13;;;;;;;25.68;53.48;101093.84;5075785;28;20044;-79
2022/06/13 00:02:59;;;;;;;3.95;3.50;;;;;;;25.68;53.44;101088.41;5076766;28;20048;-79
2022/06/13 00:05:34;;;;;;;5.57;3.63;;;;;;;25.68;53.27;101091.13;5059593;28;20071;-79
2022/06/13 00:08:02;;;;;;;4.47;3.65;;;;;;;25.69;53.39;101087.44;5076207;28;20053;-79
2022/06/13 00:10:29;;;;;;;4.35;3.42;;;;;;;25.69;53.36;101095.56;5075810;28;20380;-79
2022/06/13 00:12:56;;;;;;;4.38;3.38;;;;;;;25.69;53.39;101095.56;5075817;28;20045;-79
2022/06/13 00:15:24;;;;;;;3.80;3.35;;;;;;;25.70;53.17;101094.53;5074011;28;20385;-79
2022/06/13 00:17:51;;;;;;;4.93;3.60;;;;;;;25.69;53.21;101090.16;5076259;28;20373;-78
2022/06/13 00:20:19;;;;;;;4.20;3.25;;;;;;;25.69;53.44;101088.28;5076055;28;20048;-77
2022/06/13 00:22:46;;;;;;;4.00;3.38;;;;;;;25.69;53.46;101088.28;5076286;28;20044;-77
2022/06/13 00:25:14;;;;;;;4.55;3.47;;;;;;;25.70;53.39;101087.25;5075685;28;20488;-77
2022/06/13 00:27:41;;;;;;;4.05;3.60;;;;;;;25.70;53.30;101083.69;5076063;28;20472;-77
2022/06/13 00:30:10;;;;;;;3.97;3.47;;;;;;;25.71;53.40;101082.66;5074813;28;20364;-77
2022/06/13 00:32:37;;;;;;;4.03;3.63;;;;;;;25.70;53.28;101083.69;5076303;28;20044;-77
2022/06/13 00:35:05;;;;;;;4.57;3.78;;;;;;;25.70;53.26;101070.97;5075471;28;20048;-77
2022/06/13 00:37:32;;;;;;;4.80;3.70;;;;;;;25.71;53.26;101071.81;5074837;28;20045;-77
2022/06/13 00:40:00;;;;;;;5.35;3.45;;;;;;;25.71;53.17;101077.25;5075997;28;20048;-78
2022/06/13 00:42:28;;;;;;;3.80;3.40;;;;;;;25.71;52.98;101071.81;5075169;28;20052;-78
2022/06/13 00:45:07;;;;;;;4.15;3.65;;;;;;;25.72;53.13;101073.50;5073563;28;20063;-77
2022/06/13 00:47:37;;;;;;;4.63;3.50;;;;;;;25.71;53.16;101077.25;5074402;28;20048;-78
2022/06/13 00:50:07;;;;;;;4.53;3.20;;;;;;;25.71;53.07;101074.53;5073847;28;20076;-78
2022/06/13 00:52:45;;;;;;;3.65;3.25;;;;;;;25.71;53.15;101063.69;5075699;28;20048;-77
2022/06/13 00:55:20;;;;;;;3.88;3.13;;;;;;;25.72;53.21;101068.09;5075584;28;20049;-78
2022/06/13 00:57:48;;;;;;;4.25;3.13;;;;;;;25.72;53.13;101068.09;5075161;28;20111;-78
2022/06/13 01:00:18;;;;;;;4.50;3.03;;;;;;;25.71;53.16;101066.41;5074858;28;20053;-78
2022/06/13 01:02:49;;;;;;;3.65;2.92;;;;;;;25.72;53.09;101068.09;5075500;28;20052;-78
2022/06/13 01:05:22;;;;;;;3.75;3.15;;;;;;;25.72;53.08;101070.81;5074094;28;20415;-78
2022/06/13 01:07:50;;;;;;;3.85;3.13;;;;;;;25.72;53.02;101065.38;5074268;28;20044;-78
2022/06/13 01:13:07;;;;;;;5.78;3.30;;;;;;;25.72;53.06;101057.25;5074877;28;20044;-78
2022/06/13 01:15:37;;;;;;;3.78;2.88;;;;;;;25.72;53.15;101058.09;5075513;28;20411;-77
2022/06/13 01:18:23;;;;;;;4.07;3.67;;;;;;;25.72;53.03;101063.50;5073257;28;20143;-78
2022/06/13 01:21:06;;;;;;;3.70;3.05;;;;;;;25.72;52.92;101052.66;5075236;28;20048;-77
2022/06/13 01:24:16;;;;;;;4.32;3.35;;;;;;;25.72;53.12;101041.81;5074957;28;20475;-78
2022/06/13 01:27:14;;;;;;;5.55;3.42;;;;;;;25.72;52.98;101044.53;5074865;28;20475;-78
2022/06/13 01:29:47;;;;;;;3.83;3.25;;;;;;;25.72;53.10;101039.09;5074833;28;20388;-78
2022/06/13 01:32:39;;;;;;;3.65;3.00;;;;;;;25.72;53.08;101035.53;5074750;28;20436;-77
2022/06/13 01:35:34;;;;;;;3.78;3.42;;;;;;;25.72;53.20;101035.53;5074647;28;20059;-77
2022/06/13 01:38:28;;;;;;;4.20;3.40;;;;;;;25.72;52.77;101038.25;5074357;28;20049;-78
2022/06/13 01:41:09;;;;;;;3.47;2.90;;;;;;;25.72;52.94;101033.69;5074217;28;20052;-79
2022/06/13 01:44:09;;;;;;;4.05;3.10;;;;;;;25.71;53.11;101042.84;5075230;28;20480;-78
2022/06/13 01:46:52;;;;;;;4.13;3.38;;;;;;;25.71;53.06;101048.25;5071931;28;20044;-78
2022/06/13 01:49:23;;;;;;;4.78;3.33;;;;;;;25.72;53.13;101040.97;5073293;28;20048;-78
2022/06/13 01:51:58;;;;;;;5.00;3.20;;;;;;;25.72;52.96;101057.25;5074112;28;20048;-78
2022/06/13 01:54:38;;;;;;;3.75;3.38;;;;;;;25.71;52.91;101042.84;5074288;28;20072;-78
2022/06/13 01:57:19;;;;;;;3.40;3.00;;;;;;;25.71;52.92;101040.13;5073842;28;20044;-78
2022/06/13 01:59:56;;;;;;;5.13;3.55;;;;;;;25.71;52.78;101040.13;5073188;28;20059;-77
2022/06/13 02:02:35;;;;;;;3.55;3.25;;;;;;;25.72;52.76;101027.41;5074545;28;20055;-78
2022/06/13 02:05:14;;;;;;;3.50;2.95;;;;;;;25.71;53.06;101040.13;5074377;28;20044;-78
2022/06/13 02:07:49;;;;;;;5.47;3.03;;;;;;;25.70;52.81;101035.72;5074146;28;20384;-78
2022/06/13 02:10:41;;;;;;;5.32;3.40;;;;;;;25.71;52.80;101036.56;5073838;28;20408;-78
2022/06/13 02:13:19;;;;;;;3.67;3.33;;;;;;;25.71;52.87;101020.31;5073637;28;20048;-79
2022/06/13 02:15:52;;;;;;;3.80;3.25;;;;;;;25.71;53.05;101023.00;5073928;28;20048;-79
2022/06/13 02:18:30;;;;;;;3.85;3.40;;;;;;;25.71;52.84;101023.00;5071675;28;20056;-79
2022/06/13 02:21:06;;;;;;;5.00;3.40;;;;;;;25.71;52.82;101021.16;5073884;28;20051;-79
2022/06/13 02:23:40;;;;;;;4.35;3.22;;;;;;;25.71;52.82;101028.44;5073836;28;20049;-79
2022/06/13 02:26:11;;;;;;;3.97;3.50;;;;;;;25.71;52.80;101023.00;5073393;28;20404;-78
2022/06/13 02:29:01;;;;;;;3.47;3.17;;;;;;;25.71;52.87;101014.88;5071968;28;20059;-78
2022/06/13 02:32:13;;;;;;;3.60;3.10;;;;;;;25.72;52.79;101024.69;5073497;28;20392;-79
2022/06/13 02:34:52;;;;;;;3.83;3.28;;;;;;;25.70;52.83;101016.75;5068600;28;20063;-78
2022/06/13 02:37:22;;;;;;;3.95;3.42;;;;;;;25.70;52.67;101014.03;5073604;28;20388;-79
2022/06/13 02:40:00;;;;;;;6.22;3.80;;;;;;;25.70;52.70;101008.63;5073093;28;20053;-79
2022/06/13 02:42:36;;;;;;;3.95;3.20;;;;;;;25.70;52.68;101013.19;5073861;28;20048;-78
2022/06/13 02:45:29;;;;;;;3.40;3.10;;;;;;;25.69;52.75;101003.38;5072176;28;20396;-79
2022/06/13 02:48:21;;;;;;;4.25;3.63;;;;;;;25.69;52.67;101008.78;5073628;28;20044;-79
2022/06/13 02:51:01;;;;;;;5.10;3.70;;;;;;;25.69;52.67;101000.66;5072025;28;20110;-78
2022/06/13 02:53:41;;;;;;;3.67;2.97;;;;;;;25.70;52.79;101005.06;5073503;28;20048;-79
2022/06/13 02:56:20;;;;;;;3.95;3.28;;;;;;;25.70;52.60;101003.19;5073762;28;20089;-79
2022/06/13 02:59:19;;;;;;;7.05;3.90;;;;;;;25.69;52.76;101004.22;5079974;28;20044;-77
2022/06/13 03:01:51;;;;;;;4.05;3.47;;;;;;;25.70;52.69;101011.31;5077863;28;20064;-78
2022/06/13 03:04:36;;;;;;;6.70;3.80;;;;;;;25.70;52.30;101002.34;5080469;28;20044;-78
2022/06/13 03:07:48;;;;;;;6.22;3.90;;;;;;;25.69;52.06;100992.53;5080331;28;20052;-78
2022/06/13 03:10:21;;;;;;;4.47;3.08;;;;;;;25.66;52.20;101004.53;5057494;28;20056;-78
2022/06/13 03:13:04;;;;;;;3.80;3.10;;;;;;;25.64;51.93;101004.72;5057669;28;20056;-78
2022/06/13 03:15:40;;;;;;;5.55;3.80;;;;;;;25.63;52.23;100992.16;5039944;28;20441;-79
2022/06/13 03:18:13;;;;;;;3.50;3.20;;;;;;;25.63;52.02;100986.75;5057806;28;20052;-77
2022/06/13 03:20:54;;;;;;;3.85;3.45;;;;;;;25.62;52.05;100993.19;5057541;28;20436;-77
2022/06/13 03:23:30;;;;;;;6.35;4.05;;;;;;;25.61;52.02;100985.25;5057457;28;20049;-78
2022/06/13 03:26:02;;;;;;;4.40;3.53;;;;;;;25.60;51.90;100987.09;5058014;28;20080;-77
2022/06/13 03:28:29;;;;;;;4.93;4.00;;;;;;;25.61;52.01;100987.94;5057715;28;20057;-77
2022/06/13 03:31:02;;;;;;;4.28;3.72;;;;;;;25.61;52.12;100988.78;5040003;28;20148;-78
2022/06/13 03:33:41;;;;;;;5.93;4.03;;;;;;;25.58;52.37;100989.13;5057749;28;20152;-78
2022/06/13 03:36:22;;;;;;;5.28;3.70;;;;;;;25.57;52.28;100983.88;5057718;28;20064;-77
2022/06/13 03:38:57;;;;;;;4.47;3.78;;;;;;;25.56;52.44;100979.44;5057611;28;20055;-78
2022/06/13 03:41:31;;;;;;;4.00;3.60;;;;;;;25.56;52.26;100980.31;5071230;28;20060;-78
2022/06/13 03:44:05;;;;;;;5.90;3.40;;;;;;;25.56;52.18;100977.63;5079714;28;20040;-77
2022/06/13 03:46:43;;;;;;;4.32;3.72;;;;;;;25.56;52.26;100984.88;5078509;28;20480;-77
2022/06/13 03:49:34;;;;;;;3.60;3.28;;;;;;;25.57;52.38;100986.59;5079706;28;20345;-77
2022/06/13 03:52:03;;;;;;;5.97;3.35;;;;;;;25.56;52.26;100982.16;5078955;28;20487;-78
2022/06/13 03:54:37;;;;;;;6.00;3.38;;;;;;;25.55;52.31;100985.91;5079137;28;20040;-78
2022/06/13 03:57:16;;;;;;;4.40;3.55;;;;;;;25.55;52.40;100980.47;5079785;28;20055;-77
2022/06/13 03:59:50;;;;;;;4.53;3.63;;;;;;;25.55;52.54;100992.16;5079151;28;20049;-76
2022/06/13 04:02:24;;;;;;;5.82;3.45;;;;;;;25.54;52.34;100985.06;5079811;28;20052;-78
2022/06/13 04:04:53;;;;;;;4.07;3.67;;;;;;;25.54;52.52;100984.22;5077354;28;20056;-78
2022/06/13 04:07:22;;;;;;;4.03;3.50;;;;;;;25.54;52.69;100993.19;5078964;28;20044;-77
2022/06/13 04:09:53;;;;;;;3.83;3.42;;;;;;;25.54;52.87;100990.47;5075888;28;20110;-77
2022/06/13 04:12:26;;;;;;;4.93;3.53;;;;;;;25.55;52.66;100992.16;5076370;28;20052;-77
2022/06/13 04:15:08;;;;;;;4.20;3.63;;;;;;;25.55;52.32;100997.59;5076228;28;20480;-76
2022/06/13 04:17:45;;;;;;;5.30;4.00;;;;;;;25.56;52.48;100998.44;5076344;28;20044;-78
2022/06/13 04:20:33;;;;;;;5.30;3.72;;;;;;;25.55;52.53;100989.44;5075806;28;20472;-78
2022/06/13 04:23:21;;;;;;;6.00;3.65;;;;;;;25.54;52.41;100990.47;5074019;28;20052;-77
2022/06/13 04:26:08;;;;;;;4.63;4.13;;;;;;;25.55;52.82;100992.16;5075922;28;20056;-78
2022/06/13 04:28:38;;;;;;;5.88;3.58;;;;;;;25.55;52.86;100988.59;5075746;28;20045;-77
2022/06/13 04:31:08;;;;;;;5.90;4.45;;;;;;;25.55;52.78;100994.88;5076200;28;20411;-78
2022/06/13 04:33:41;;;;;;;4.18;3.78;;;;;;;25.54;52.75;100997.78;5076410;28;20076;-78
2022/06/13 04:36:12;;;;;;;8.20;4.20;;;;;;;25.53;52.58;100994.22;5075559;28;20044;-78
2022/06/13 04:38:44;;;;;;;5.53;3.92;;;;;;;25.55;52.46;101007.59;5075518;28;20043;-79
2022/06/13 04:41:14;;;;;;;4.53;3.97;;;;;;;25.54;52.72;101008.59;5075533;28;20049;-78
2022/06/13 04:43:46;;;;;;;5.78;4.32;;;;;;;25.53;52.89;101007.75;5075193;28;20492;-78
2022/06/13 04:46:18;;;;;;;5.00;4.22;;;;;;;25.53;52.57;101007.75;5074785;28;20055;-77
2022/06/13 04:48:49;;;;;;;5.32;4.30;;;;;;;25.52;52.48;101005.19;5075676;28;20491;-77
2022/06/13 04:51:26;;;;;;;6.57;4.15;;;;;;;25.53;52.44;101005.06;5074983;28;20056;-77
2022/06/13 04:53:57;;;;;;;5.43;3.95;;;;;;;25.53;52.64;101009.63;5075952;28;20048;-77
2022/06/13 04:56:25;;;;;;;6.00;4.10;;;;;;;25.53;52.83;101009.63;5073800;28;20056;-77
2022/06/13 04:58:55;;;;;;;4.85;4.15;;;;;;;25.52;52.59;101008.78;5073277;28;20056;-77
2022/06/13 05:01:35;;;;;;;8.88;4.00;;;;;;;25.53;52.67;101001.50;5075444;28;20365;-77
2022/06/13 05:04:06;;;;;;;4.60;4.00;;;;;;;25.51;52.51;101001.66;5075251;28;20048;-77
2022/06/13 05:06:33;;;;;;;6.45;3.80;;;;;;;25.52;52.04;101003.38;5074950;28;20056;-78
2022/06/13 05:09:27;;;;;;;6.38;3.83;;;;;;;25.52;52.52;101008.78;5075014;28;20044;-78
2022/06/13 05:12:22;;;;;;;4.43;3.28;;;;;;;25.52;51.92;101000.66;5075074;28;20515;-77
2022/06/13 05:15:01;;;;;;;5.78;3.90;;;;;;;25.51;51.53;101012.50;5075325;28;20048;-77
2022/06/13 05:18:03;;;;;;;4.20;3.58;;;;;;;25.52;51.99;101008.78;5075064;28;20049;-78
2022/06/13 05:21:03;;;;;;;4.90;3.20;;;;;;;25.52;52.02;101016.91;5071663;28;20063;-78
2022/06/13 05:23:57;;;;;;;4.97;4.25;;;;;;;25.53;52.09;101015.06;5074722;28;20399;-77
2022/06/13 05:26:29;;;;;;;7.20;3.45;;;;;;;25.52;52.02;101021.47;5075177;28;20041;-77
2022/06/13 05:28:57;;;;;;;4.07;3.10;;;;;;;25.52;51.94;101019.63;5074878;28;20044;-77
2022/06/13 05:31:24;;;;;;;3.97;3.55;;;;;;;25.51;51.99;101022.50;5074197;28;20040;-77
2022/06/13 05:33:54;;;;;;;4.53;3.25;;;;;;;25.51;52.04;101025.19;5074374;28;20071;-76
2022/06/13 05:36:23;;;;;;;7.50;3.10;;;;;;;25.51;52.15;101031.47;5074369;28;20049;-77
2022/06/13 05:38:54;;;;;;;5.95;2.92;;;;;;;25.51;52.09;101028.75;5074007;28;20040;-77
2022/06/13 05:41:22;;;;;;;5.65;3.33;;;;;;;25.52;52.01;101029.59;5072283;28;20409;-77
2022/06/13 05:43:50;;;;;;;6.22;3.00;;;;;;;25.52;52.00;101035.03;5073971;28;20047;-77
2022/06/13 05:46:29;;;;;;;4.72;3.25;;;;;;;25.52;52.03;101030.47;5074584;28;20391;-78
2022/06/13 05:48:58;;;;;;;4.95;2.92;;;;;;;25.52;52.23;101035.03;5074458;28;20040;-77
2022/06/13 05:51:26;;;;;;;3.75;3.15;;;;;;;25.52;52.26;101035.03;5073832;28;20063;-77
2022/06/13 05:53:57;;;;;;;3.95;2.63;;;;;;;25.52;52.24;101041.31;5073801;28;20049;-77
2022/06/13 05:56:25;;;;;;;4.30;3.30;;;;;;;25.51;52.20;101034.19;5073978;28;20072;-77
2022/06/13 05:58:53;;;;;;;6.07;3.35;;;;;;;25.52;52.22;101041.31;5073668;28;20047;-77
2022/06/13 06:01:21;;;;;;;3.85;3.30;;;;;;;25.53;52.46;101042.16;5073500;28;20051;-78
2022/06/13 06:03:48;;;;;;;4.10;3.03;;;;;;;25.53;52.30;101042.16;5072315;28;20044;-78
2022/06/13 06:06:27;;;;;;;6.45;3.33;;;;;;;25.53;52.28;101034.88;5073552;28;20055;-77
2022/06/13 06:08:55;;;;;;;3.58;3.10;;;;;;;25.54;52.27;101039.28;5073894;28;20470;-78
2022/06/13 06:11:24;;;;;;;5.35;3.20;;;;;;;25.55;52.44;101050.97;5072126;28;20048;-78
2022/06/13 06:13:51;;;;;;;5.65;3.20;;;;;;;25.54;52.39;101050.13;5072025;28;20048;-79
2022/06/13 06:16:21;;;;;;;3.75;3.10;;;;;;;25.55;52.32;101054.50;5073122;28;20503;-78
2022/06/13 06:18:49;;;;;;;3.80;3.15;;;;;;;25.55;52.58;101046.38;5073209;28;20111;-78
2022/06/13 06:21:16;;;;;;;4.03;3.50;;;;;;;25.55;52.76;101043.66;5073512;28;20047;-78
2022/06/13 06:23:44;;;;;;;3.40;3.08;;;;;;;25.56;52.67;101037.25;5072076;28;20048;-80
2022/06/13 06:26:25;;;;;;;3.42;3.10;;;;;;;25.57;52.67;101025.38;5073026;28;20048;-78
2022/06/13 06:28:53;;;;;;;5.10;3.17;;;;;;;25.58;52.86;101023.53;5073773;28;20045;-78
2022/06/13 06:31:21;;;;;;;7.72;3.25;;;;;;;25.56;52.03;101021.00;5073229;28;20052;-78
2022/06/13 06:33:48;;;;;;;5.20;3.97;;;;;;;25.55;51.36;101027.41;5073014;28;20040;-77
2022/06/13 06:36:16;;;;;;;4.15;3.72;;;;;;;25.54;51.58;101017.59;5073177;28;20067;-77
2022/06/13 06:38:45;;;;;;;4.93;3.25;;;;;;;25.51;52.07;101026.03;5073271;28;20041;-77
2022/06/13 06:41:13;;;;;;;5.88;3.72;;;;;;;25.50;51.98;101029.78;5073202;28;20048;-78
2022/06/13 06:43:41;;;;;;;3.97;3.13;;;;;;;25.50;51.94;101032.50;5073306;28;20063;-78
2022/06/13 06:46:24;;;;;;;3.72;3.05;;;;;;;25.51;52.36;101022.50;5073645;28;20503;-77
2022/06/13 06:48:51;;;;;;;6.05;3.33;;;;;;;25.53;52.52;101017.78;5073032;28;20043;-76
2022/06/13 06:51:19;;;;;;;5.00;3.22;;;;;;;25.54;52.14;101020.28;5072675;28;20411;-77
2022/06/13 07:02:04;;;;;;;5.15;3.45;;;;;;;25.56;52.07;101003.84;5072819;28;20044;-76
2022/06/13 07:04:32;;;;;;;3.65;3.08;;;;;;;25.56;52.48;101010.16;5071984;28;20056;-78
2022/06/13 07:06:59;;;;;;;4.15;2.60;;;;;;;25.55;52.61;101021.97;5073280;28;20484;-78
2022/06/13 07:09:26;;;;;;;5.28;3.25;;;;;;;25.56;53.02;101030.97;5073276;28;20049;-78
2022/06/13 07:11:54;;;;;;;4.18;3.08;;;;;;;25.55;53.14;101031.97;5071484;28;20404;-78
2022/06/13 07:14:30;;;;;;;4.60;2.95;;;;;;;25.55;53.04;101051.81;5072848;28;20044;-77
2022/06/13 07:17:00;;;;;;;5.00;3.22;;;;;;;25.56;53.06;101058.06;5073148;28;20048;-78
2022/06/13 07:19:28;;;;;;;3.95;3.13;;;;;;;25.56;53.11;101061.66;5071313;28;20045;-77
2022/06/13 07:21:55;;;;;;;5.43;3.15;;;;;;;25.57;53.57;101057.09;5072180;28;20059;-78
2022/06/13 07:24:23;;;;;;;4.55;3.15;;;;;;;25.56;53.83;101056.25;5072579;28;20056;-78
2022/06/13 07:26:51;;;;;;;4.13;2.78;;;;;;;25.56;53.89;101056.25;5072787;28;20369;-77
2022/06/13 07:29:18;;;;;;;4.20;3.28;;;;;;;25.57;54.13;101057.91;5073330;28;20044;-77
2022/06/13 07:31:49;;;;;;;4.68;3.00;;;;;;;25.57;54.17;101052.50;5073295;28;20403;-77
2022/06/13 07:34:21;;;;;;;4.10;3.30;;;;;;;25.56;54.48;101061.66;5073866;28;20056;-78
2022/06/13 07:36:51;;;;;;;4.50;2.90;;;;;;;25.58;54.71;101066.91;5073568;28;20040;-77
2022/06/13 07:39:18;;;;;;;3.55;3.22;;;;;;;25.57;54.74;101065.22;5073863;28;20301;-78
2022/06/13 07:41:46;;;;;;;5.13;3.75;;;;;;;25.57;54.84;101054.38;5073522;28;20384;-77
2022/06/13 07:44:36;;;;;;;3.70;2.78;;;;;;;25.56;54.73;101044.50;5073878;28;20041;-77
2022/06/13 07:47:05;;;;;;;4.15;3.17;;;;;;;25.57;54.38;101051.66;5076438;28;20067;-77
2022/06/13 07:49:33;;;;;;;4.95;2.88;;;;;;;25.57;54.77;101051.66;5075847;28;20048;-77
2022/06/13 07:52:00;;;;;;;4.20;3.28;;;;;;;25.57;54.93;101043.53;5076709;28;20048;-77
2022/06/13 07:54:27;;;;;;;5.38;3.10;;;;;;;25.58;55.10;101056.06;5077296;28;20045;-77
2022/06/13 07:56:55;;;;;;;3.58;3.28;;;;;;;25.57;54.84;101055.22;5077209;28;20143;-77
2022/06/13 07:59:27;;;;;;;2.90;2.60;;;;;;;25.57;54.69;101049.78;5076863;28;20044;-78
2022/06/13 08:01:57;;;;;;;5.70;3.93;;;;;;;25.58;55.06;101064.19;5077263;28;20059;-78
2022/06/13 08:04:24;;;;;;;6.25;3.67;;;;;;;25.55;55.51;101053.66;5077066;28;20296;-78
2022/06/13 08:07:15;;;;;;;7.47;4.13;;;;;;;25.51;55.70;101033.34;5076199;28;20048;-78
2022/06/13 08:09:42;;;;;;;7.28;3.78;;;;;;;25.50;56.30;101039.78;5077032;28;20049;-78
2022/06/13 08:12:12;;;;;;;6.50;5.90;;;;;;;25.46;56.29;101041.97;5076451;28;20105;-78
2022/06/13 08:14:45;;;;;;;6.47;5.45;;;;;;;25.42;56.48;101042.47;5076867;28;20052;-79
2022/06/13 08:17:15;;;;;;;9.10;5.43;;;;;;;25.39;56.35;101040.94;5075256;28;20060;-78
2022/06/13 08:19:42;;;;;;;8.68;6.28;;;;;;;25.40;57.05;101042.63;5075158;28;20043;-79
2022/06/13 08:22:10;;;;;;;7.10;4.90;;;;;;;25.39;56.69;101044.50;5075538;28;20052;-78
2022/06/13 08:24:37;;;;;;;8.23;5.70;;;;;;;25.40;56.67;101048.03;5076730;28;20052;-79
2022/06/13 08:27:05;;;;;;;8.38;5.40;;;;;;;25.40;56.97;101057.06;5075120;28;20055;-79
2022/06/13 08:29:32;;;;;;;9.25;5.97;;;;;;;25.42;56.79;101062.28;5076342;28;20044;-77
2022/06/13 08:32:01;;;;;;;8.15;6.18;;;;;;;25.42;57.45;101056.03;5076202;28;20407;-77
2022/06/13 08:34:30;;;;;;;9.30;6.72;;;;;;;25.42;56.85;101056.03;5075935;28;20044;-76
2022/06/13 08:36:57;;;;;;;7.10;5.97;;;;;;;25.42;56.68;101056.03;5074663;28;20510;-77
2022/06/13 08:39:25;;;;;;;7.93;6.47;;;;;;;25.42;56.50;101053.31;5074689;28;20056;-77
2022/06/13 08:42:24;;;;;;;8.80;6.03;;;;;;;25.43;56.29;101060.44;5075657;28;20059;-76
2022/06/13 08:45:17;;;;;;;11.60;6.05;;;;;;;25.45;56.29;101061.13;5074639;28;20051;-77
2022/06/13 08:47:49;;;;;;;5.63;4.95;;;;;;;25.48;55.99;101058.94;5073500;28;20075;-77
2022/06/13 08:50:37;;;;;;;10.05;5.10;;;;;;;25.51;56.13;101052.31;5074819;28;20059;-77
2022/06/13 08:53:19;;;;;;;7.80;5.40;;;;;;;25.51;56.05;101045.03;5075648;28;20051;-77
2022/06/13 08:55:51;;;;;;;10.20;5.13;;;;;;;25.53;55.78;101053.84;5075296;28;20044;-77
2022/06/13 08:58:33;;;;;;;6.97;5.00;;;;;;;25.55;55.29;101059.94;5076138;28;20044;-78
2022/06/13 09:01:16;;;;;;;10.07;5.03;;;;;;;25.56;55.05;101056.25;5076635;28;20045;-77
2022/06/13 09:04:21;;;;;;;8.40;5.25;;;;;;;25.57;55.02;101044.38;5060492;28;20045;-77
2022/06/13 09:06:56;;;;;;;10.48;5.72;;;;;;;25.60;54.61;101041.31;5055078;28;20048;-77
2022/06/13 09:09:29;;;;;;;6.65;5.10;;;;;;;25.60;54.41;101043.16;5054984;28;20052;-77
2022/06/13 09:12:30;;;;;;;6.03;4.93;;;;;;;25.61;53.46;101045.72;5054948;28;20049;-78
2022/06/13 09:14:58;;;;;;;7.75;4.95;;;;;;;25.61;53.26;101050.31;5053642;28;20404;-79
2022/06/13 09:17:48;;;;;;;6.40;4.43;;;;;;;25.61;53.28;101051.16;5074217;28;20059;-79
2022/06/13 09:20:24;;;;;;;6.60;4.05;;;;;;;25.61;52.09;101045.72;5075566;28;20047;-82
2022/06/13 09:22:51;;;;;;;6.75;4.03;;;;;;;25.63;51.84;101051.81;5074776;28;20052;-82
2022/06/13 09:25:32;;;;;;;4.95;4.30;;;;;;;25.62;51.22;101052.84;5072942;28;20554;-77
2022/06/13 09:28:25;;;;;;;5.18;3.72;;;;;;;25.62;51.40;101052.84;5076070;28;20052;-76
2022/06/13 09:31:18;;;;;;;5.65;3.90;;;;;;;25.64;51.46;101055.38;5073824;28;20043;-77
2022/06/13 09:33:55;;;;;;;4.20;3.75;;;;;;;25.65;51.47;101046.25;5075513;28;20056;-77
2022/06/13 09:36:31;;;;;;;4.57;3.47;;;;;;;25.65;51.81;101044.38;5075496;28;20529;-77
2022/06/13 09:39:03;;;;;;;5.03;3.40;;;;;;;25.67;51.72;101043.34;5072457;28;20079;-78
2022/06/13 09:42:03;;;;;;;5.75;3.80;;;;;;;25.68;52.20;101050.47;5072919;28;20045;-78
2022/06/13 09:44:47;;;;;;;3.72;3.17;;;;;;;25.69;52.22;101046.75;5073008;28;20064;-77
2022/06/13 09:47:20;;;;;;;4.20;3.10;;;;;;;25.69;52.27;101041.34;5073787;28;20132;-77
2022/06/13 09:50:08;;;;;;;5.32;3.45;;;;;;;25.69;52.09;101036.75;5074797;28;20492;-77
2022/06/13 09:52:50;;;;;;;3.78;3.10;;;;;;;25.70;52.24;101037.59;5074409;28;20055;-77
2022/06/13 09:55:55;;;;;;;5.85;3.42;;;;;;;25.71;52.11;101033.88;5074765;28;20048;-77
2022/06/13 09:59:03;;;;;;;7.97;3.42;;;;;;;25.70;52.31;101033.03;5074872;28;20049;-77
2022/06/13 10:01:39;;;;;;;3.33;2.90;;;;;;;25.70;52.32;101027.59;5073346;28;20099;-77
2022/06/13 10:04:17;;;;;;;6.53;3.38;;;;;;;25.71;52.25;101025.72;5075036;28;20124;-77
2022/06/13 10:07:01;;;;;;;3.90;3.10;;;;;;;25.72;52.08;101019.28;5073867;28;20059;-80
2022/06/13 10:09:49;;;;;;;5.43;3.33;;;;;;;25.73;52.13;101016.41;5074793;28;20048;-78
2022/06/13 10:12:46;;;;;;;4.50;3.22;;;;;;;25.72;52.23;101012.00;5073596;28;20055;-78
2022/06/13 10:15:26;;;;;;;4.93;3.00;;;;;;;25.73;52.02;101008.28;5055819;28;20048;-78
2022/06/13 10:18:05;;;;;;;4.32;3.92;;;;;;;25.74;51.90;101007.25;5073211;28;20058;-78
2022/06/13 10:20:51;;;;;;;6.35;3.05;;;;;;;25.74;52.09;100999.13;5073971;28;20056;-78
2022/06/13 10:23:35;;;;;;;4.22;3.38;;;;;;;25.75;51.77;100997.25;5072999;28;20044;-78
2022/06/13 10:26:24;;;;;;;3.65;3.25;;;;;;;25.76;52.06;101004.38;5073405;28;20049;-78
2022/06/13 10:28:57;;;;;;;4.97;3.10;;;;;;;25.75;52.04;100981.81;5073340;28;20483;-79
2022/06/13 10:31:52;;;;;;;5.93;3.20;;;;;;;25.76;51.95;100982.66;5073313;28;20399;-79
2022/06/13 10:34:56;;;;;;;5.40;3.50;;;;;;;25.77;51.83;100984.38;5074100;28;20099;-78
2022/06/13 10:37:33;;;;;;;3.35;2.53;;;;;;;25.77;51.81;100982.56;5073910;28;20055;-79
2022/06/13 10:40:03;;;;;;;4.95;3.00;;;;;;;25.79;51.67;100979.66;5074061;28;20044;-79
2022/06/13 10:42:34;;;;;;;3.63;2.90;;;;;;;25.78;51.71;100976.09;5074173;28;20045;-80
2022/06/13 10:45:07;;;;;;;4.88;3.00;;;;;;;25.79;51.94;100960.66;5074383;28;20059;-79
2022/06/13 10:47:42;;;;;;;6.10;3.50;;;;;;;25.80;51.88;100965.06;5071635;28;20063;-77
2022/06/13 10:50:15;;;;;;;5.43;3.15;;;;;;;25.80;51.79;100959.66;5073071;28;20052;-78
2022/06/13 10:52:47;;;;;;;3.78;3.30;;;;;;;25.81;51.68;100962.22;5072926;28;20041;-78
2022/06/13 10:55:19;;;;;;;4.35;3.20;;;;;;;25.82;51.66;100963.06;5073244;28;20044;-79
2022/06/13 10:57:57;;;;;;;5.03;3.47;;;;;;;25.83;51.58;100956.59;5073874;28;20052;-79
2022/06/13 11:00:28;;;;;;;4.38;3.13;;;;;;;25.84;51.48;100955.56;5072533;28;20060;-78
2022/06/13 11:03:16;;;;;;;4.93;3.47;;;;;;;25.85;51.29;100949.16;5073535;28;20077;-79
2022/06/13 11:05:56;;;;;;;5.03;3.72;;;;;;;25.84;50.99;100953.69;5073599;28;20049;-79
2022/06/13 11:08:23;;;;;;;6.68;4.15;;;;;;;25.86;50.46;100946.25;5073004;28;20071;-79
2022/06/13 11:11:02;;;;;;;4.43;3.25;;;;;;;25.88;50.91;100941.50;5071693;28;20045;-78
2022/06/13 11:13:37;;;;;;;6.63;4.22;;;;;;;25.90;50.96;100944.03;5073510;28;20377;-79
2022/06/13 11:24:45;;;;;;;10.80;5.55;;;;;;;25.91;50.58;100934.88;5077868;28;20040;-78
2022/06/13 11:27:40;;;;;;;14.52;8.15;;;;;;;25.91;50.43;100932.16;5077911;28;20052;-77
2022/06/13 11:30:17;;;;;;;8.35;5.43;;;;;;;25.92;49.80;100933.00;5076295;28;20079;-78
2022/06/13 11:33:24;;;;;;;9.05;5.20;;;;;;;25.92;49.70;100928.44;5077063;28;20036;-78
2022/06/13 11:35:59;;;;;;;8.13;4.75;;;;;;;25.92;50.01;100928.44;5054600;28;20071;-78
2022/06/13 11:38:30;;;;;;;5.18;4.32;;;;;;;25.93;50.25;100924.72;5055170;28;20069;-79
2022/06/13 11:41:15;;;;;;;7.53;5.03;;;;;;;25.93;50.02;100922.00;5038131;28;20049;-78
2022/06/13 11:43:54;;;;;;;11.35;6.03;;;;;;;25.93;50.42;100913.88;5055283;28;20057;-79
2022/06/13 11:46:27;;;;;;;10.32;5.68;;;;;;;25.92;49.47;100914.88;5054844;28;20068;-78
2022/06/13 11:48:59;;;;;;;8.13;5.05;;;;;;;25.93;49.68;100913.88;5050921;28;20052;-78
2022/06/13 11:51:34;;;;;;;11.15;5.88;;;;;;;25.94;49.97;100912.84;5041122;28;20056;-77
2022/06/13 11:54:02;;;;;;;8.43;4.43;;;;;;;25.94;49.83;100910.13;5034511;28;20053;-78
2022/06/13 11:56:34;;;;;;;9.00;5.00;;;;;;;25.94;49.94;100910.13;5034645;28;20050;-80
2022/06/13 11:59:05;;;;;;;6.88;4.65;;;;;;;25.94;50.14;100910.13;5034065;28;20050;-76
2022/06/13 12:01:37;;;;;;;7.40;4.60;;;;;;;25.94;50.13;100915.56;5017971;28;20098;-77
2022/06/13 12:04:04;;;;;;;8.82;4.53;;;;;;;25.94;50.00;100904.72;5033739;28;20053;-77
2022/06/13 12:06:36;;;;;;;9.38;4.78;;;;;;;25.93;49.41;100897.59;5033739;28;20045;-77
2022/06/13 12:09:21;;;;;;;5.72;4.47;;;;;;;25.94;49.40;100899.28;5034213;28;20064;-77
2022/06/13 12:12:05;;;;;;;7.35;4.82;;;;;;;25.94;49.30;100890.31;5048156;28;20053;-77
2022/06/13 12:14:39;;;;;;;5.45;3.80;;;;;;;25.95;49.03;100889.28;5055958;28;20056;-77
2022/06/13 12:17:26;;;;;;;7.28;4.30;;;;;;;25.94;49.90;100880.28;5056023;28;20143;-76
2022/06/13 12:20:04;;;;;;;6.47;3.83;;;;;;;25.95;49.63;100873.84;5055428;28;20068;-77
2022/06/13 12:22:48;;;;;;;7.60;4.10;;;;;;;25.95;49.31;100875.72;5055139;28;20036;-77
2022/06/13 12:25:34;;;;;;;6.40;4.35;;;;;;;25.96;49.69;100874.69;5055403;28;20048;-77